地図

経路データ

SID SEASON NUMBER BASIN SUBBASIN NAME ISO_TIME NATURE LAT LON WMO_WIND WMO_PRES WMO_AGENCY TRACK_TYPE DIST2LAND LANDFALL IFLAG USA_AGENCY USA_ATCF_ID USA_LAT USA_LON USA_RECORD USA_STATUS USA_WIND USA_PRES USA_SSHS USA_R34_NE USA_R34_SE USA_R34_SW USA_R34_NW USA_R50_NE USA_R50_SE USA_R50_SW USA_R50_NW USA_R64_NE USA_R64_SE USA_R64_SW USA_R64_NW USA_POCI USA_ROCI USA_RMW USA_EYE TOKYO_LAT TOKYO_LON TOKYO_GRADE TOKYO_WIND TOKYO_PRES TOKYO_R50_DIR TOKYO_R50_LONG TOKYO_R50_SHORT TOKYO_R30_DIR TOKYO_R30_LONG TOKYO_R30_SHORT TOKYO_LAND CMA_LAT CMA_LON CMA_CAT CMA_WIND CMA_PRES HKO_LAT HKO_LON HKO_CAT HKO_WIND HKO_PRES NEWDELHI_LAT NEWDELHI_LON NEWDELHI_GRADE NEWDELHI_WIND NEWDELHI_PRES NEWDELHI_CI NEWDELHI_DP NEWDELHI_POCI REUNION_LAT REUNION_LON REUNION_TYPE REUNION_WIND REUNION_PRES REUNION_TNUM REUNION_CI REUNION_RMW REUNION_R34_NE REUNION_R34_SE REUNION_R34_SW REUNION_R34_NW REUNION_R50_NE REUNION_R50_SE REUNION_R50_SW REUNION_R50_NW REUNION_R64_NE REUNION_R64_SE REUNION_R64_SW REUNION_R64_NW BOM_LAT BOM_LON BOM_TYPE BOM_WIND BOM_PRES BOM_TNUM BOM_CI BOM_RMW BOM_R34_NE BOM_R34_SE BOM_R34_SW BOM_R34_NW BOM_R50_NE BOM_R50_SE BOM_R50_SW BOM_R50_NW BOM_R64_NE BOM_R64_SE BOM_R64_SW BOM_R64_NW BOM_ROCI BOM_POCI BOM_EYE BOM_POS_METHOD BOM_PRES_METHOD NADI_LAT NADI_LON NADI_CAT NADI_WIND NADI_PRES WELLINGTON_LAT WELLINGTON_LON WELLINGTON_WIND WELLINGTON_PRES DS824_LAT DS824_LON DS824_STAGE DS824_WIND DS824_PRES TD9636_LAT TD9636_LON TD9636_STAGE TD9636_WIND TD9636_PRES TD9635_LAT TD9635_LON TD9635_WIND TD9635_PRES TD9635_ROCI NEUMANN_LAT NEUMANN_LON NEUMANN_CLASS NEUMANN_WIND NEUMANN_PRES MLC_LAT MLC_LON MLC_CLASS MLC_WIND MLC_PRES USA_GUST BOM_GUST BOM_GUST_PER REUNION_GUST REUNION_GUST_PER USA_SEAHGT USA_SEARAD_NE USA_SEARAD_SE USA_SEARAD_SW USA_SEARAD_NW STORM_SPEED STORM_DIR
1946364S16148 1947 81 SP EA NOT_NAMED 1946-12-29 23:00:00 NR -16.1500 148.000 1007 bom main 245 241 ______O___O___ -1 -16.1000 147.900 1007 -16.2000 148.100 7 1 0
1946364S16148 1947 81 SP EA NOT_NAMED 1946-12-30 00:00:00 TS -16.1613 148.006 main 241 241 O_____P__OP___ jtwc_sh SH061947 -16.2000 148.100 -1 -16.1140 147.861 -16.1000 147.900 TC 15 1007 -16.2006 148.109 7 0 0
1946364S16148 1947 81 SP EA NOT_NAMED 1946-12-30 03:00:00 TS -16.1701 147.988 main 241 241 P_____P__PP___ SH061947 -16.2000 148.100 -1 -16.1546 147.749 -16.0858 147.907 TC -16.2021 148.134 7 0 248
1946364S16148 1947 81 SP EA NOT_NAMED 1946-12-30 06:00:00 TS -16.1758 147.973 main 241 241 O_____P__PP___ jtwc_sh SH061947 -16.2000 148.100 -1 -16.1899 147.654 -16.0730 147.918 TC -16.2027 148.144 7 0 0
1946364S16148 1947 81 SP EA NOT_NAMED 1946-12-30 09:00:00 TS -16.1761 147.971 main 241 241 P_____P__PP___ SH061947 -16.2000 148.100 -1 -16.2159 147.591 -16.0629 147.937 TC -16.2018 148.129 7 0 0
1946364S16148 1947 81 SP EA NOT_NAMED 1946-12-30 11:00:00 TS -16.1769 147.966 main 241 241 P_____P__PO___ SH061947 -16.2000 148.100 -1 -16.2263 147.572 -16.0583 147.956 TC -16.2000 148.100 7 0 0
1946364S16148 1947 81 SP EA NOT_NAMED 1946-12-30 12:00:00 TS -16.1769 147.964 main 241 241 O_____P__PP___ jtwc_sh SH061947 -16.2000 148.100 -1 -16.2289 147.572 -16.0568 147.968 TC -16.1987 148.079 7 0 0
1946364S16148 1947 81 SP EA NOT_NAMED 1946-12-30 15:00:00 TS -16.1750 147.967 main 241 241 P_____P__PP___ SH061947 -16.2000 148.100 -1 -16.2248 147.611 -16.0562 148.016 TC -16.1942 148.008 7 0 81
1946364S16148 1947 81 SP EA NOT_NAMED 1946-12-30 18:00:00 TS -16.1707 147.994 main 241 241 O_____P__PP___ jtwc_sh SH061947 -16.2000 148.100 -1 -16.1997 147.721 -16.0623 148.085 TC -16.1915 147.965 7 1 83
1946364S16148 1947 81 SP EA NOT_NAMED 1946-12-30 21:00:00 TS -16.1685 148.028 main 241 241 P_____P__PP___ SH061947 -16.1999 148.040 -1 -16.1495 147.916 -16.0764 148.178 TC -16.1939 148.003 7 1 87
1946364S16148 1947 81 SP EA NOT_NAMED 1946-12-30 23:00:00 TS -16.1656 148.097 1004 bom main 251 251 P_____O__PO___ SH061947 -16.1999 148.054 -1 -16.1000 148.100 1004 -16.0910 148.256 TC -16.2000 148.100 7 2 87
1946364S16148 1947 81 SP EA NOT_NAMED 1946-12-31 00:00:00 TS -16.1630 148.157 main 260 260 O_____P__OP___ jtwc_sh SH061947 -16.2000 148.100 -1 -16.0702 148.209 -16.1000 148.300 TC 20 1004 -16.1977 148.184 7 6 86
1946364S16148 1947 81 SP EA NOT_NAMED 1946-12-31 03:00:00 TS -16.1377 148.494 main 294 294 P_____P__PP___ SH061947 -16.1925 148.425 -1 -15.9723 148.597 -16.1341 148.454 TC -16.1933 148.527 7 8 87
1946364S16148 1947 81 SP EA NOT_NAMED 1946-12-31 06:00:00 TS -16.1232 148.956 main 341 341 O_____P__PP___ jtwc_sh SH061947 -16.2000 148.900 -1 -15.8885 149.054 -16.1795 148.638 TC -16.2044 148.972 7 9 90
1946364S16148 1947 81 SP EA NOT_NAMED 1946-12-31 09:00:00 TS -16.1351 149.447 main 380 380 P_____P__PP___ SH061947 -16.2200 149.385 -1 -15.8537 149.552 -16.2366 148.850 TC -16.2467 149.467 7 10 94
1946364S16148 1947 81 SP EA NOT_NAMED 1946-12-31 11:00:00 TS -16.1755 149.787 main 416 416 P_____P__PO___ SH061947 -16.2636 149.728 -1 -15.8750 149.893 -16.2815 149.006 TC -16.3000 149.800 7 10 99
1946364S16148 1947 81 SP EA NOT_NAMED 1946-12-31 12:00:00 TS -16.2097 149.956 main 436 436 O_____P__PP___ jtwc_sh SH061947 -16.3000 149.900 -1 -15.9030 150.064 -16.3060 149.087 TC -16.3359 149.960 7 10 106
1946364S16148 1947 81 SP EA NOT_NAMED 1946-12-31 14:00:00 TS -16.3108 150.294 bom main 463 459 P_____O__PP___ SH061947 -16.4096 150.244 -1 -16.0000 150.400 -16.3594 149.258 TC -16.4241 150.287 7 10 109
1946364S16148 1947 81 SP EA NOT_NAMED 1946-12-31 15:00:00 TS -16.3781 150.462 main 465 460 P_____P__PP___ SH061947 -16.4775 150.415 -1 -16.0819 150.565 -16.3882 149.347 TC -16.4755 150.451 7 10 116
1946364S16148 1947 81 SP EA NOT_NAMED 1946-12-31 18:00:00 TS -16.6129 150.948 main 469 464 O_____P__PP___ jtwc_sh SH061947 -16.7000 150.900 -1 -16.3982 151.060 -16.4838 149.625 TC -16.6532 150.930 7 10 118
1946364S16148 1947 81 SP EA NOT_NAMED 1946-12-31 21:00:00 TS -16.8551 151.394 main 468 466 P_____P__PP___ SH061947 -16.9000 151.345 -1 -16.7641 151.526 -16.5932 149.921 TC -16.8565 151.360 7 9 121
1946364S16148 1947 81 SP EA NOT_NAMED 1946-12-31 23:00:00 TS -17.0167 151.647 999 bom main 472 470 P_____O__PO___ SH061947 -17.0333 151.595 -1 -17.0000 151.800 999 4 -16.6742 150.126 TC -17.0000 151.600 7 8 124
1946364S16148 1947 81 SP EA NOT_NAMED 1947-01-01 00:00:00 TS -17.0894 151.752 main 477 469 O_____P__PP___ jtwc_sh SH061947 -17.1000 151.700 -1 -17.0847 151.912 -16.7171 150.230 TC -17.0730 151.698 7 7 130
1946364S16148 1947 81 SP EA NOT_NAMED 1947-01-01 03:00:00 TS -17.2973 152.001 main 475 467 P_____P__PP___ SH061947 -17.2924 151.945 -1 -17.2991 152.181 -16.8560 150.551 TC -17.3053 151.931 7 6 136
1946364S16148 1947 81 SP EA NOT_NAMED 1947-01-01 06:00:00 TS -17.5022 152.165 main 475 460 O_____P__PP___ jtwc_sh SH061947 -17.5000 152.100 -1 -17.4658 152.363 -17.0105 150.881 TC -17.5430 152.097 7 5 148
1946364S16148 1947 81 SP EA NOT_NAMED 1947-01-01 09:00:00 TS -17.7241 152.280 main 469 462 P_____P__PP___ SH061947 -17.7650 152.208 -1 -17.5991 152.481 -17.1812 151.218 TC -17.7673 152.224 7 5 155
1946364S16148 1947 81 SP EA NOT_NAMED 1947-01-01 11:00:00 TS -17.8597 152.342 main 455 455 P_____P__PO___ SH061947 -17.9312 152.266 -1 -17.6765 152.535 -17.3043 151.444 TC -17.9000 152.300 7 4 156
1946364S16148 1947 81 SP EA NOT_NAMED 1947-01-01 12:00:00 TS -17.9149 152.374 main 463 457 O_____P__PP___ jtwc_sh SH061947 -18.0000 152.300 -1 -17.7133 152.556 -17.3687 151.558 TC -17.9464 152.341 7 3 141
1946364S16148 1947 81 SP EA NOT_NAMED 1947-01-01 15:00:00 TS -18.0282 152.486 main 466 459 P_____P__PP___ SH061947 -18.1150 152.443 -1 -17.8229 152.608 -17.5737 151.898 TC -18.0600 152.451 7 3 134
1946364S16148 1947 81 SP EA NOT_NAMED 1947-01-01 18:00:00 TS -18.1260 152.604 main 468 462 O_____P__PP___ jtwc_sh SH061947 -18.2000 152.600 -1 -17.9419 152.659 -17.7968 152.237 TC -18.1620 152.558 7 3 135
1946364S16148 1947 81 SP EA NOT_NAMED 1947-01-01 21:00:00 TS -18.2529 152.722 main 466 466 P_____P__PP___ SH061947 -18.3199 152.735 -1 -18.0847 152.730 -18.0386 152.572 TC -18.2870 152.688 7 4 139
1946364S16148 1947 81 SP EA NOT_NAMED 1947-01-01 23:00:00 TS -18.3651 152.819 1000 bom main 470 470 P_____O__PO___ SH061947 -18.4302 152.839 -1 -18.2000 152.800 1000 -18.2107 152.792 TC -18.4000 152.800 7 5 139
1946364S16148 1947 81 SP EA NOT_NAMED 1947-01-02 00:00:00 TS -18.4257 152.879 main 479 474 O_____P__OP___ jtwc_sh SH061947 -18.5000 152.900 -1 -18.2600 152.836 -18.3000 152.900 TC 30 1000 -18.4742 152.875 7 6 139
1946364S16148 1947 81 SP EA NOT_NAMED 1947-01-02 03:00:00 TS -18.6733 153.099 main 483 475 P_____P__PP___ SH061947 -18.7775 153.127 -1 -18.4504 152.947 -18.5811 153.219 TC -18.7341 153.135 7 7 140
1946364S16148 1947 81 SP EA NOT_NAMED 1947-01-02 06:00:00 TS -18.9602 153.358 main 472 461 O_____P__PP___ jtwc_sh SH061947 -19.1000 153.400 -1 -18.6629 153.076 -18.8799 153.530 TC -19.0381 153.425 7 8 138
1946364S16148 1947 81 SP EA NOT_NAMED 1947-01-02 09:00:00 TS -19.2511 153.641 main 459 457 P_____P__PP___ SH061947 -19.3926 153.708 -1 -18.9062 153.239 -19.1938 153.834 TC -19.3704 153.718 7 8 138
1946364S16148 1947 81 SP EA NOT_NAMED 1947-01-02 11:00:00 TS -19.4577 153.825 main 456 456 P_____P__PO___ SH061947 -19.5943 153.909 -1 -19.0898 153.376 -19.4102 154.033 TC -19.6000 153.900 7 8 141
1946364S16148 1947 81 SP EA NOT_NAMED 1947-01-02 12:00:00 TS -19.5608 153.909 main 456 448 O_____P__PP___ jtwc_sh SH061947 -19.7000 154.000 -1 -19.1890 153.455 -19.5203 154.132 TC -19.6949 153.957 7 8 146
1946364S16148 1947 81 SP EA NOT_NAMED 1947-01-02 15:00:00 TS -19.8892 154.140 main 448 444 P_____P__PP___ SH061947 -20.0424 154.215 -1 -19.5198 153.743 -19.8568 154.427 TC -19.9844 154.101 7 8 147
1946364S16148 1947 81 SP EA NOT_NAMED 1947-01-02 18:00:00 TS -20.2428 154.379 main 452 443 O_____P__PP___ jtwc_sh SH061947 -20.4000 154.400 -1 -19.9070 154.120 -20.2007 154.719 TC -20.3062 154.256 7 8 148
1946364S16148 1947 81 SP EA NOT_NAMED 1947-01-02 21:00:00 TS -20.6015 154.619 main 446 445 P_____P__PP___ SH061947 -20.6972 154.548 -1 -20.3589 154.606 -20.5493 155.009 TC -20.6918 154.480 7 9 147
1946364S16148 1947 81 SP EA NOT_NAMED 1947-01-02 23:00:00 TS -20.8840 154.820 999 bom main 450 450 P_____O__PO___ SH061947 -20.9432 154.694 -1 -20.7000 155.000 999 -20.7830 155.203 TC -21.0000 154.700 7 11 147
1946364S16148 1947 81 SP EA NOT_NAMED 1947-01-03 00:00:00 TS -21.0615 154.935 main 444 407 O_____P__OP___ jtwc_sh SH061947 -21.1000 154.800 -1 -20.8958 155.221 -20.9000 155.300 TC 30 999 -21.1907 154.828 7 15 145
1946364S16148 1947 81 SP EA NOT_NAMED 1947-01-03 03:00:00 TS -21.7179 155.445 main 407 386 P_____P___P___ SH061947 -21.7548 155.260 -1 -21.5269 155.965 TC -21.8350 155.295 7 18 141
1946364S16148 1947 81 SP EA NOT_NAMED 1947-01-03 06:00:00 TS -22.4279 156.124 main 391 391 O_____P___P___ jtwc_sh SH061947 -22.5000 155.900 -1 -22.1819 156.802 TC -22.5299 155.893 7 19 136
1946364S16148 1947 81 SP EA NOT_NAMED 1947-01-03 09:00:00 TS -23.0995 156.898 main 412 412 P_____P___P___ SH061947 -23.1946 156.633 -1 -22.8072 157.696 TC -23.2016 156.630 7 20 132
1946364S16148 1947 81 SP EA NOT_NAMED 1947-01-03 10:00:00 TS -23.3075 157.181 bom main 429 429 P_____O___P___ SH061947 -23.4112 156.908 -1 -23.0000 158.000 TC -23.4076 156.907 7 20 127
1946364S16148 1947 81 SP EA NOT_NAMED 1947-01-03 11:00:00 TS -23.5026 157.475 main 447 447 P_____P___O___ SH061947 -23.6142 157.197 -1 -23.1822 158.305 TC -23.6000 157.200 7 21 121
1946364S16148 1947 81 SP EA NOT_NAMED 1947-01-03 12:00:00 TS -23.6660 157.820 main 468 468 O_____P___P___ jtwc_sh SH061947 -23.8000 157.500 -1 -23.3541 158.610 TC -23.7768 157.509 7 21 115
1946364S16148 1947 81 SP EA NOT_NAMED 1947-01-03 15:00:00 TS -24.0957 158.840 main 554 554 P_____P___P___ SH061947 -24.2490 158.472 -1 -23.8167 159.529 TC -24.2215 158.520 7 21 112
1946364S16148 1947 81 SP EA NOT_NAMED 1947-01-03 18:00:00 TS -24.4425 159.905 main 611 543 O_____P___P___ jtwc_sh SH061947 -24.6000 159.500 -1 -24.2161 160.452 TC -24.5640 159.629 7 21 107
1946364S16148 1947 81 SP MM NOT_NAMED 1947-01-03 21:00:00 NR -24.7060 161.090 main 535 508 ______P___P___ SH061947 -1 -24.5739 161.379 TC -24.8381 160.801 7 21 105
1946364S16148 1947 81 SP MM NOT_NAMED 1947-01-03 23:00:00 NR -24.9000 161.800 1001 bom main 503 ______O___O___ SH061947 -1 -24.8000 162.000 1001 TC -25.0000 161.600 7 20 107

デジタル台風データ・検索

IBTrACS Databaseについて

本データベースは、米国NOAAが公開する1842年以降の世界の熱帯低気圧のベストトラックデータアーカイブInternational Best Track Archive for Climate Stewardship (IBTrACS)を、ウェブで閲覧しやすい形式に変換したものです。

最終更新日:2021-12-03